sensor_id;sensor_type;location;lat;lon;timestamp;P1;durP1;ratioP1;P2;durP2;ratioP2
28934;SDS011;16044;52.726;-2.108;2022-10-31T00:01:19;38.33;;;4.80;;
28934;SDS011;16044;52.726;-2.108;2022-10-31T00:04:03;38.07;;;4.77;;
28934;SDS011;16044;52.726;-2.108;2022-10-31T00:06:31;33.75;;;5.00;;
28934;SDS011;16044;52.726;-2.108;2022-10-31T00:08:59;38.92;;;5.68;;
28934;SDS011;16044;52.726;-2.108;2022-10-31T00:11:28;38.70;;;5.30;;
28934;SDS011;16044;52.726;-2.108;2022-10-31T00:13:56;36.53;;;4.93;;
28934;SDS011;16044;52.726;-2.108;2022-10-31T00:16:24;34.22;;;4.72;;
28934;SDS011;16044;52.726;-2.108;2022-10-31T00:18:52;42.45;;;4.88;;
28934;SDS011;16044;52.726;-2.108;2022-10-31T00:21:23;35.90;;;4.57;;
28934;SDS011;16044;52.726;-2.108;2022-10-31T00:23:50;42.83;;;5.97;;
28934;SDS011;16044;52.726;-2.108;2022-10-31T00:26:18;43.25;;;5.90;;
28934;SDS011;16044;52.726;-2.108;2022-10-31T00:28:45;33.90;;;5.15;;
28934;SDS011;16044;52.726;-2.108;2022-10-31T00:31:13;38.65;;;5.25;;
28934;SDS011;16044;52.726;-2.108;2022-10-31T00:33:40;36.72;;;5.47;;
28934;SDS011;16044;52.726;-2.108;2022-10-31T00:36:10;30.33;;;4.60;;
28934;SDS011;16044;52.726;-2.108;2022-10-31T00:38:41;39.00;;;5.38;;
28934;SDS011;16044;52.726;-2.108;2022-10-31T00:41:09;44.42;;;5.90;;
28934;SDS011;16044;52.726;-2.108;2022-10-31T00:43:37;44.15;;;5.30;;
28934;SDS011;16044;52.726;-2.108;2022-10-31T00:46:04;37.05;;;4.93;;
28934;SDS011;16044;52.726;-2.108;2022-10-31T00:48:31;36.80;;;5.18;;
28934;SDS011;16044;52.726;-2.108;2022-10-31T00:50:58;47.78;;;6.05;;
28934;SDS011;16044;52.726;-2.108;2022-10-31T00:53:25;55.17;;;6.82;;
28934;SDS011;16044;52.726;-2.108;2022-10-31T00:55:52;46.42;;;6.18;;
28934;SDS011;16044;52.726;-2.108;2022-10-31T00:58:19;48.88;;;5.25;;
28934;SDS011;16044;52.726;-2.108;2022-10-31T01:00:49;45.20;;;5.63;;
28934;SDS011;16044;52.726;-2.108;2022-10-31T01:03:25;43.17;;;5.07;;
28934;SDS011;16044;52.726;-2.108;2022-10-31T01:06:06;47.17;;;5.53;;
28934;SDS011;16044;52.726;-2.108;2022-10-31T01:08:36;39.35;;;5.88;;
28934;SDS011;16044;52.726;-2.108;2022-10-31T01:11:08;44.55;;;5.80;;
28934;SDS011;16044;52.726;-2.108;2022-10-31T01:13:46;41.67;;;5.60;;
28934;SDS011;16044;52.726;-2.108;2022-10-31T01:16:16;39.60;;;5.47;;
28934;SDS011;16044;52.726;-2.108;2022-10-31T01:18:46;43.08;;;5.40;;
28934;SDS011;16044;52.726;-2.108;2022-10-31T01:21:23;36.75;;;5.35;;
28934;SDS011;16044;52.726;-2.108;2022-10-31T01:23:53;47.28;;;5.72;;
28934;SDS011;16044;52.726;-2.108;2022-10-31T01:26:22;33.63;;;5.00;;
28934;SDS011;16044;52.726;-2.108;2022-10-31T01:28:53;43.97;;;5.28;;
28934;SDS011;16044;52.726;-2.108;2022-10-31T01:31:30;38.95;;;5.05;;
28934;SDS011;16044;52.726;-2.108;2022-10-31T01:34:03;41.38;;;5.72;;
28934;SDS011;16044;52.726;-2.108;2022-10-31T01:36:31;37.72;;;5.57;;
28934;SDS011;16044;52.726;-2.108;2022-10-31T01:39:04;44.08;;;5.35;;
28934;SDS011;16044;52.726;-2.108;2022-10-31T01:41:36;40.75;;;5.70;;
28934;SDS011;16044;52.726;-2.108;2022-10-31T01:49:59;44.67;;;6.70;;
28934;SDS011;16044;52.726;-2.108;2022-10-31T01:52:25;38.03;;;5.68;;
28934;SDS011;16044;52.726;-2.108;2022-10-31T01:55:00;46.35;;;5.55;;
28934;SDS011;16044;52.726;-2.108;2022-10-31T01:57:34;42.88;;;5.25;;
28934;SDS011;16044;52.726;-2.108;2022-10-31T02:00:06;36.88;;;5.15;;
28934;SDS011;16044;52.726;-2.108;2022-10-31T02:02:36;38.70;;;4.82;;
28934;SDS011;16044;52.726;-2.108;2022-10-31T02:05:04;34.38;;;4.65;;
28934;SDS011;16044;52.726;-2.108;2022-10-31T02:07:38;45.88;;;5.50;;
28934;SDS011;16044;52.726;-2.108;2022-10-31T02:10:12;37.55;;;4.97;;
28934;SDS011;16044;52.726;-2.108;2022-10-31T02:12:39;45.50;;;5.10;;
28934;SDS011;16044;52.726;-2.108;2022-10-31T02:15:07;45.42;;;5.57;;
28934;SDS011;16044;52.726;-2.108;2022-10-31T02:17:35;48.95;;;5.63;;
28934;SDS011;16044;52.726;-2.108;2022-10-31T02:23:10;39.80;;;5.10;;
28934;SDS011;16044;52.726;-2.108;2022-10-31T02:26:22;44.05;;;5.15;;
28934;SDS011;16044;52.726;-2.108;2022-10-31T02:32:25;54.85;;;6.28;;
28934;SDS011;16044;52.726;-2.108;2022-10-31T02:35:16;42.08;;;5.57;;
28934;SDS011;16044;52.726;-2.108;2022-10-31T02:38:12;43.10;;;5.70;;
28934;SDS011;16044;52.726;-2.108;2022-10-31T02:41:17;46.83;;;5.55;;
28934;SDS011;16044;52.726;-2.108;2022-10-31T02:51:56;48.22;;;5.45;;
28934;SDS011;16044;52.726;-2.108;2022-10-31T02:54:24;44.70;;;6.15;;
28934;SDS011;16044;52.726;-2.108;2022-10-31T02:56:55;38.45;;;4.88;;
28934;SDS011;16044;52.726;-2.108;2022-10-31T02:59:28;39.17;;;5.00;;
28934;SDS011;16044;52.726;-2.108;2022-10-31T03:07:49;40.85;;;5.22;;
28934;SDS011;16044;52.726;-2.108;2022-10-31T03:16:18;39.75;;;5.10;;
28934;SDS011;16044;52.726;-2.108;2022-10-31T03:19:12;42.67;;;4.20;;
28934;SDS011;16044;52.726;-2.108;2022-10-31T03:24:24;36.88;;;4.70;;
28934;SDS011;16044;52.726;-2.108;2022-10-31T03:26:57;38.85;;;4.70;;
28934;SDS011;16044;52.726;-2.108;2022-10-31T03:29:28;32.05;;;4.00;;
28934;SDS011;16044;52.726;-2.108;2022-10-31T03:32:05;33.60;;;4.07;;
28934;SDS011;16044;52.726;-2.108;2022-10-31T03:34:37;35.10;;;4.53;;
28934;SDS011;16044;52.726;-2.108;2022-10-31T03:37:09;32.10;;;4.97;;
28934;SDS011;16044;52.726;-2.108;2022-10-31T03:39:41;46.72;;;5.00;;
28934;SDS011;16044;52.726;-2.108;2022-10-31T03:42:15;35.17;;;4.95;;
28934;SDS011;16044;52.726;-2.108;2022-10-31T03:45:35;39.80;;;4.60;;
28934;SDS011;16044;52.726;-2.108;2022-10-31T03:47:42;44.40;;;5.45;;
28934;SDS011;16044;52.726;-2.108;2022-10-31T03:50:11;34.78;;;4.93;;
28934;SDS011;16044;52.726;-2.108;2022-10-31T03:55:49;36.80;;;4.15;;
28934;SDS011;16044;52.726;-2.108;2022-10-31T03:58:34;37.60;;;4.88;;
28934;SDS011;16044;52.726;-2.108;2022-10-31T04:01:06;30.13;;;4.68;;
28934;SDS011;16044;52.726;-2.108;2022-10-31T04:03:38;35.83;;;4.00;;
28934;SDS011;16044;52.726;-2.108;2022-10-31T04:06:06;42.72;;;4.40;;
28934;SDS011;16044;52.726;-2.108;2022-10-31T04:08:39;31.40;;;4.07;;
28934;SDS011;16044;52.726;-2.108;2022-10-31T04:11:12;32.30;;;4.45;;
28934;SDS011;16044;52.726;-2.108;2022-10-31T04:13:41;31.98;;;3.38;;
28934;SDS011;16044;52.726;-2.108;2022-10-31T04:16:12;38.92;;;4.22;;
28934;SDS011;16044;52.726;-2.108;2022-10-31T04:18:42;29.25;;;4.10;;
28934;SDS011;16044;52.726;-2.108;2022-10-31T04:21:10;35.10;;;4.32;;
28934;SDS011;16044;52.726;-2.108;2022-10-31T04:23:37;37.33;;;5.00;;
28934;SDS011;16044;52.726;-2.108;2022-10-31T04:26:04;36.90;;;4.70;;
28934;SDS011;16044;52.726;-2.108;2022-10-31T04:28:31;39.00;;;4.65;;
28934;SDS011;16044;52.726;-2.108;2022-10-31T04:31:00;38.10;;;3.95;;
28934;SDS011;16044;52.726;-2.108;2022-10-31T04:33:27;31.30;;;4.03;;
28934;SDS011;16044;52.726;-2.108;2022-10-31T04:35:54;30.35;;;4.47;;
28934;SDS011;16044;52.726;-2.108;2022-10-31T04:38:21;35.53;;;3.88;;
28934;SDS011;16044;52.726;-2.108;2022-10-31T04:40:48;34.97;;;4.20;;
28934;SDS011;16044;52.726;-2.108;2022-10-31T04:43:14;35.10;;;3.92;;
28934;SDS011;16044;52.726;-2.108;2022-10-31T04:45:41;32.00;;;4.38;;
28934;SDS011;16044;52.726;-2.108;2022-10-31T04:48:08;34.67;;;4.13;;
28934;SDS011;16044;52.726;-2.108;2022-10-31T04:50:35;28.20;;;3.85;;
28934;SDS011;16044;52.726;-2.108;2022-10-31T04:53:02;33.97;;;3.72;;
28934;SDS011;16044;52.726;-2.108;2022-10-31T04:55:29;33.28;;;3.72;;
28934;SDS011;16044;52.726;-2.108;2022-10-31T04:57:56;31.58;;;3.42;;
28934;SDS011;16044;52.726;-2.108;2022-10-31T05:00:24;35.60;;;4.40;;
28934;SDS011;16044;52.726;-2.108;2022-10-31T05:02:52;40.28;;;3.75;;
28934;SDS011;16044;52.726;-2.108;2022-10-31T05:05:25;33.50;;;3.75;;
28934;SDS011;16044;52.726;-2.108;2022-10-31T05:07:57;36.15;;;3.67;;
28934;SDS011;16044;52.726;-2.108;2022-10-31T05:10:25;40.67;;;5.07;;
28934;SDS011;16044;52.726;-2.108;2022-10-31T05:12:59;33.45;;;4.70;;
28934;SDS011;16044;52.726;-2.108;2022-10-31T05:15:28;38.80;;;4.18;;
28934;SDS011;16044;52.726;-2.108;2022-10-31T05:17:56;30.60;;;3.53;;
28934;SDS011;16044;52.726;-2.108;2022-10-31T05:20:25;29.50;;;3.67;;
28934;SDS011;16044;52.726;-2.108;2022-10-31T05:22:55;26.58;;;3.72;;
28934;SDS011;16044;52.726;-2.108;2022-10-31T05:25:25;35.65;;;3.85;;
28934;SDS011;16044;52.726;-2.108;2022-10-31T05:27:54;30.20;;;3.60;;
28934;SDS011;16044;52.726;-2.108;2022-10-31T05:30:23;26.42;;;4.03;;
28934;SDS011;16044;52.726;-2.108;2022-10-31T05:32:54;28.17;;;3.47;;
28934;SDS011;16044;52.726;-2.108;2022-10-31T05:35:22;42.30;;;3.78;;
28934;SDS011;16044;52.726;-2.108;2022-10-31T05:37:54;31.33;;;3.50;;
28934;SDS011;16044;52.726;-2.108;2022-10-31T05:40:21;36.60;;;3.80;;
28934;SDS011;16044;52.726;-2.108;2022-10-31T05:42:50;41.40;;;4.60;;
28934;SDS011;16044;52.726;-2.108;2022-10-31T05:45:19;27.73;;;3.50;;
28934;SDS011;16044;52.726;-2.108;2022-10-31T05:47:52;26.77;;;3.35;;
28934;SDS011;16044;52.726;-2.108;2022-10-31T05:50:24;31.70;;;3.72;;
28934;SDS011;16044;52.726;-2.108;2022-10-31T05:52:55;32.72;;;3.85;;
28934;SDS011;16044;52.726;-2.108;2022-10-31T05:55:25;33.00;;;3.95;;
28934;SDS011;16044;52.726;-2.108;2022-10-31T05:57:53;35.92;;;3.63;;
28934;SDS011;16044;52.726;-2.108;2022-10-31T06:00:21;34.20;;;4.05;;
28934;SDS011;16044;52.726;-2.108;2022-10-31T06:02:49;29.90;;;3.85;;
28934;SDS011;16044;52.726;-2.108;2022-10-31T06:05:24;38.15;;;4.43;;
28934;SDS011;16044;52.726;-2.108;2022-10-31T06:07:51;31.90;;;3.97;;
28934;SDS011;16044;52.726;-2.108;2022-10-31T06:10:18;27.80;;;3.60;;
28934;SDS011;16044;52.726;-2.108;2022-10-31T06:12:47;27.70;;;3.85;;
28934;SDS011;16044;52.726;-2.108;2022-10-31T06:15:14;37.55;;;4.32;;
28934;SDS011;16044;52.726;-2.108;2022-10-31T06:17:58;33.42;;;4.05;;
28934;SDS011;16044;52.726;-2.108;2022-10-31T06:20:31;26.13;;;3.55;;
28934;SDS011;16044;52.726;-2.108;2022-10-31T06:22:59;40.47;;;4.30;;
28934;SDS011;16044;52.726;-2.108;2022-10-31T06:25:27;27.23;;;3.22;;
28934;SDS011;16044;52.726;-2.108;2022-10-31T06:27:55;31.75;;;4.05;;
28934;SDS011;16044;52.726;-2.108;2022-10-31T06:30:22;30.75;;;3.50;;
28934;SDS011;16044;52.726;-2.108;2022-10-31T06:32:48;25.25;;;3.10;;
28934;SDS011;16044;52.726;-2.108;2022-10-31T06:35:16;35.58;;;3.70;;
28934;SDS011;16044;52.726;-2.108;2022-10-31T06:37:50;34.50;;;4.28;;
28934;SDS011;16044;52.726;-2.108;2022-10-31T06:40:20;26.70;;;3.67;;
28934;SDS011;16044;52.726;-2.108;2022-10-31T06:42:55;30.23;;;4.05;;
28934;SDS011;16044;52.726;-2.108;2022-10-31T06:45:24;27.85;;;3.58;;
28934;SDS011;16044;52.726;-2.108;2022-10-31T06:47:52;28.17;;;4.07;;
28934;SDS011;16044;52.726;-2.108;2022-10-31T06:50:40;32.90;;;4.25;;
28934;SDS011;16044;52.726;-2.108;2022-10-31T06:53:07;36.20;;;4.47;;
28934;SDS011;16044;52.726;-2.108;2022-10-31T06:55:56;33.65;;;3.88;;
28934;SDS011;16044;52.726;-2.108;2022-10-31T06:58:23;29.90;;;3.95;;
28934;SDS011;16044;52.726;-2.108;2022-10-31T07:00:50;30.35;;;3.85;;
28934;SDS011;16044;52.726;-2.108;2022-10-31T07:03:17;37.28;;;4.05;;
28934;SDS011;16044;52.726;-2.108;2022-10-31T07:05:44;25.48;;;3.88;;
28934;SDS011;16044;52.726;-2.108;2022-10-31T07:08:12;34.00;;;4.30;;
28934;SDS011;16044;52.726;-2.108;2022-10-31T07:10:40;23.08;;;3.17;;
28934;SDS011;16044;52.726;-2.108;2022-10-31T07:13:10;24.80;;;3.50;;
28934;SDS011;16044;52.726;-2.108;2022-10-31T07:15:40;24.45;;;3.88;;
28934;SDS011;16044;52.726;-2.108;2022-10-31T07:18:10;31.52;;;3.75;;
28934;SDS011;16044;52.726;-2.108;2022-10-31T07:20:38;26.50;;;3.05;;
28934;SDS011;16044;52.726;-2.108;2022-10-31T07:23:05;21.73;;;3.25;;
28934;SDS011;16044;52.726;-2.108;2022-10-31T07:25:32;22.60;;;3.40;;
28934;SDS011;16044;52.726;-2.108;2022-10-31T07:27:59;28.40;;;3.78;;
28934;SDS011;16044;52.726;-2.108;2022-10-31T07:30:27;29.00;;;3.40;;
28934;SDS011;16044;52.726;-2.108;2022-10-31T07:32:53;31.13;;;3.83;;
28934;SDS011;16044;52.726;-2.108;2022-10-31T07:35:22;22.23;;;3.40;;
28934;SDS011;16044;52.726;-2.108;2022-10-31T07:37:52;23.67;;;4.20;;
28934;SDS011;16044;52.726;-2.108;2022-10-31T07:40:19;21.58;;;3.15;;
28934;SDS011;16044;52.726;-2.108;2022-10-31T07:42:48;20.30;;;2.90;;
28934;SDS011;16044;52.726;-2.108;2022-10-31T07:45:18;26.20;;;3.55;;
28934;SDS011;16044;52.726;-2.108;2022-10-31T07:47:47;28.60;;;3.40;;
28934;SDS011;16044;52.726;-2.108;2022-10-31T07:50:17;30.42;;;3.75;;
28934;SDS011;16044;52.726;-2.108;2022-10-31T07:53:09;29.20;;;3.33;;
28934;SDS011;16044;52.726;-2.108;2022-10-31T07:55:39;25.35;;;3.33;;
28934;SDS011;16044;52.726;-2.108;2022-10-31T07:58:07;30.70;;;3.65;;
28934;SDS011;16044;52.726;-2.108;2022-10-31T08:00:41;23.95;;;3.60;;
28934;SDS011;16044;52.726;-2.108;2022-10-31T08:03:12;30.45;;;3.58;;
28934;SDS011;16044;52.726;-2.108;2022-10-31T08:05:42;26.42;;;3.63;;
28934;SDS011;16044;52.726;-2.108;2022-10-31T08:08:12;20.85;;;3.13;;
28934;SDS011;16044;52.726;-2.108;2022-10-31T08:10:40;24.63;;;3.75;;
28934;SDS011;16044;52.726;-2.108;2022-10-31T08:13:11;24.70;;;3.17;;
28934;SDS011;16044;52.726;-2.108;2022-10-31T08:15:40;28.13;;;3.47;;
28934;SDS011;16044;52.726;-2.108;2022-10-31T08:18:12;21.83;;;3.50;;
28934;SDS011;16044;52.726;-2.108;2022-10-31T08:20:43;24.45;;;3.42;;
28934;SDS011;16044;52.726;-2.108;2022-10-31T08:23:10;27.20;;;4.05;;
28934;SDS011;16044;52.726;-2.108;2022-10-31T08:25:38;22.58;;;2.90;;
28934;SDS011;16044;52.726;-2.108;2022-10-31T08:28:06;23.08;;;3.47;;
28934;SDS011;16044;52.726;-2.108;2022-10-31T08:30:35;25.23;;;3.40;;
28934;SDS011;16044;52.726;-2.108;2022-10-31T08:33:11;31.38;;;3.42;;
28934;SDS011;16044;52.726;-2.108;2022-10-31T08:35:41;25.98;;;3.53;;
28934;SDS011;16044;52.726;-2.108;2022-10-31T08:38:09;19.10;;;2.78;;
28934;SDS011;16044;52.726;-2.108;2022-10-31T08:40:37;21.55;;;3.45;;
28934;SDS011;16044;52.726;-2.108;2022-10-31T08:43:05;23.45;;;3.05;;
28934;SDS011;16044;52.726;-2.108;2022-10-31T08:45:38;23.60;;;3.03;;
28934;SDS011;16044;52.726;-2.108;2022-10-31T08:48:06;24.83;;;3.28;;
28934;SDS011;16044;52.726;-2.108;2022-10-31T08:50:40;24.20;;;2.85;;
28934;SDS011;16044;52.726;-2.108;2022-10-31T08:53:09;24.55;;;2.90;;
28934;SDS011;16044;52.726;-2.108;2022-10-31T08:55:40;26.77;;;3.30;;
28934;SDS011;16044;52.726;-2.108;2022-10-31T08:58:09;23.85;;;3.03;;
28934;SDS011;16044;52.726;-2.108;2022-10-31T09:00:39;22.05;;;2.75;;
28934;SDS011;16044;52.726;-2.108;2022-10-31T09:03:09;25.33;;;3.50;;
28934;SDS011;16044;52.726;-2.108;2022-10-31T09:05:42;22.83;;;3.25;;
28934;SDS011;16044;52.726;-2.108;2022-10-31T09:08:10;22.17;;;3.55;;
28934;SDS011;16044;52.726;-2.108;2022-10-31T09:10:42;32.08;;;3.58;;
28934;SDS011;16044;52.726;-2.108;2022-10-31T09:13:10;25.42;;;3.58;;
28934;SDS011;16044;52.726;-2.108;2022-10-31T09:15:40;17.67;;;2.97;;
28934;SDS011;16044;52.726;-2.108;2022-10-31T09:18:10;19.60;;;3.42;;
28934;SDS011;16044;52.726;-2.108;2022-10-31T09:20:39;22.33;;;3.45;;
28934;SDS011;16044;52.726;-2.108;2022-10-31T09:23:18;29.05;;;3.42;;
28934;SDS011;16044;52.726;-2.108;2022-10-31T09:25:48;24.38;;;3.63;;
28934;SDS011;16044;52.726;-2.108;2022-10-31T09:28:18;23.90;;;3.15;;
28934;SDS011;16044;52.726;-2.108;2022-10-31T09:30:48;32.15;;;3.42;;
28934;SDS011;16044;52.726;-2.108;2022-10-31T09:33:20;23.92;;;3.35;;
28934;SDS011;16044;52.726;-2.108;2022-10-31T09:35:47;22.38;;;3.20;;
28934;SDS011;16044;52.726;-2.108;2022-10-31T09:38:15;20.45;;;2.80;;
28934;SDS011;16044;52.726;-2.108;2022-10-31T09:40:54;15.70;;;2.78;;
28934;SDS011;16044;52.726;-2.108;2022-10-31T09:43:55;20.65;;;3.00;;
28934;SDS011;16044;52.726;-2.108;2022-10-31T09:46:51;27.33;;;3.50;;
28934;SDS011;16044;52.726;-2.108;2022-10-31T09:49:46;21.10;;;2.88;;
28934;SDS011;16044;52.726;-2.108;2022-10-31T09:52:29;28.50;;;3.30;;
28934;SDS011;16044;52.726;-2.108;2022-10-31T09:55:19;19.23;;;3.17;;
28934;SDS011;16044;52.726;-2.108;2022-10-31T09:57:54;17.45;;;2.90;;
28934;SDS011;16044;52.726;-2.108;2022-10-31T10:00:21;19.08;;;2.45;;
28934;SDS011;16044;52.726;-2.108;2022-10-31T10:03:07;21.67;;;2.75;;
28934;SDS011;16044;52.726;-2.108;2022-10-31T10:05:53;26.23;;;3.50;;
28934;SDS011;16044;52.726;-2.108;2022-10-31T10:08:26;18.52;;;2.63;;
28934;SDS011;16044;52.726;-2.108;2022-10-31T10:11:08;18.88;;;2.33;;
28934;SDS011;16044;52.726;-2.108;2022-10-31T10:19:57;24.02;;;3.60;;
28934;SDS011;16044;52.726;-2.108;2022-10-31T10:28:36;30.42;;;3.58;;
28934;SDS011;16044;52.726;-2.108;2022-10-31T10:33:26;16.33;;;2.83;;
28934;SDS011;16044;52.726;-2.108;2022-10-31T10:36:00;20.20;;;2.90;;
28934;SDS011;16044;52.726;-2.108;2022-10-31T10:38:34;23.42;;;3.50;;
28934;SDS011;16044;52.726;-2.108;2022-10-31T10:41:16;19.92;;;2.80;;
28934;SDS011;16044;52.726;-2.108;2022-10-31T10:43:53;21.98;;;2.72;;
28934;SDS011;16044;52.726;-2.108;2022-10-31T10:54:47;21.38;;;3.05;;
28934;SDS011;16044;52.726;-2.108;2022-10-31T11:00:18;20.70;;;3.05;;
28934;SDS011;16044;52.726;-2.108;2022-10-31T11:02:54;14.10;;;2.53;;
28934;SDS011;16044;52.726;-2.108;2022-10-31T11:05:23;21.30;;;3.13;;
28934;SDS011;16044;52.726;-2.108;2022-10-31T11:08:29;17.38;;;2.60;;
28934;SDS011;16044;52.726;-2.108;2022-10-31T11:13:47;16.75;;;2.72;;
28934;SDS011;16044;52.726;-2.108;2022-10-31T11:16:35;16.50;;;2.63;;
28934;SDS011;16044;52.726;-2.108;2022-10-31T11:19:17;12.05;;;2.47;;
28934;SDS011;16044;52.726;-2.108;2022-10-31T11:21:48;14.95;;;2.15;;
28934;SDS011;16044;52.726;-2.108;2022-10-31T11:24:20;20.73;;;2.67;;
28934;SDS011;16044;52.726;-2.108;2022-10-31T11:27:02;19.27;;;3.33;;
28934;SDS011;16044;52.726;-2.108;2022-10-31T11:29:39;20.08;;;2.58;;
28934;SDS011;16044;52.726;-2.108;2022-10-31T11:32:08;17.23;;;2.60;;
28934;SDS011;16044;52.726;-2.108;2022-10-31T11:34:50;14.05;;;2.63;;
28934;SDS011;16044;52.726;-2.108;2022-10-31T11:37:21;15.50;;;2.78;;
28934;SDS011;16044;52.726;-2.108;2022-10-31T11:40:16;15.60;;;2.58;;
28934;SDS011;16044;52.726;-2.108;2022-10-31T11:42:54;14.82;;;2.65;;
28934;SDS011;16044;52.726;-2.108;2022-10-31T11:47:51;15.85;;;2.83;;
28934;SDS011;16044;52.726;-2.108;2022-10-31T11:50:28;16.20;;;2.40;;
28934;SDS011;16044;52.726;-2.108;2022-10-31T11:53:11;17.63;;;3.53;;
28934;SDS011;16044;52.726;-2.108;2022-10-31T11:55:44;16.25;;;2.42;;
28934;SDS011;16044;52.726;-2.108;2022-10-31T11:58:30;13.65;;;2.17;;
28934;SDS011;16044;52.726;-2.108;2022-10-31T12:00:57;21.05;;;2.88;;
28934;SDS011;16044;52.726;-2.108;2022-10-31T12:06:12;16.75;;;2.65;;
28934;SDS011;16044;52.726;-2.108;2022-10-31T12:08:47;13.95;;;2.70;;
28934;SDS011;16044;52.726;-2.108;2022-10-31T12:12:02;15.02;;;2.95;;
28934;SDS011;16044;52.726;-2.108;2022-10-31T12:17:40;19.58;;;2.92;;
28934;SDS011;16044;52.726;-2.108;2022-10-31T12:31:44;14.27;;;2.90;;
28934;SDS011;16044;52.726;-2.108;2022-10-31T12:34:29;14.95;;;2.30;;
28934;SDS011;16044;52.726;-2.108;2022-10-31T12:46:47;10.15;;;2.38;;
28934;SDS011;16044;52.726;-2.108;2022-10-31T12:57:50;14.93;;;2.33;;
28934;SDS011;16044;52.726;-2.108;2022-10-31T13:00:28;15.25;;;2.50;;
28934;SDS011;16044;52.726;-2.108;2022-10-31T13:03:14;16.98;;;2.58;;
28934;SDS011;16044;52.726;-2.108;2022-10-31T13:06:03;19.75;;;3.13;;
28934;SDS011;16044;52.726;-2.108;2022-10-31T13:08:43;17.20;;;2.50;;
28934;SDS011;16044;52.726;-2.108;2022-10-31T13:11:30;18.13;;;2.78;;
28934;SDS011;16044;52.726;-2.108;2022-10-31T13:14:09;13.00;;;2.40;;
28934;SDS011;16044;52.726;-2.108;2022-10-31T13:16:42;12.05;;;2.17;;
28934;SDS011;16044;52.726;-2.108;2022-10-31T13:19:18;15.88;;;2.83;;
28934;SDS011;16044;52.726;-2.108;2022-10-31T13:24:28;13.18;;;2.83;;
28934;SDS011;16044;52.726;-2.108;2022-10-31T13:27:28;16.20;;;3.15;;
28934;SDS011;16044;52.726;-2.108;2022-10-31T13:32:52;16.85;;;3.15;;
28934;SDS011;16044;52.726;-2.108;2022-10-31T13:38:24;13.75;;;2.53;;
28934;SDS011;16044;52.726;-2.108;2022-10-31T13:41:32;15.73;;;2.45;;
28934;SDS011;16044;52.726;-2.108;2022-10-31T13:44:28;9.82;;;2.38;;
28934;SDS011;16044;52.726;-2.108;2022-10-31T13:47:03;15.00;;;2.63;;
28934;SDS011;16044;52.726;-2.108;2022-10-31T13:49:48;14.77;;;2.70;;
28934;SDS011;16044;52.726;-2.108;2022-10-31T13:52:16;8.88;;;2.20;;
28934;SDS011;16044;52.726;-2.108;2022-10-31T13:54:51;15.35;;;2.10;;
28934;SDS011;16044;52.726;-2.108;2022-10-31T13:57:37;12.00;;;2.40;;
28934;SDS011;16044;52.726;-2.108;2022-10-31T14:02:48;8.30;;;2.00;;
28934;SDS011;16044;52.726;-2.108;2022-10-31T14:05:22;13.65;;;2.38;;
28934;SDS011;16044;52.726;-2.108;2022-10-31T14:07:56;10.48;;;2.20;;
28934;SDS011;16044;52.726;-2.108;2022-10-31T14:10:28;9.55;;;2.17;;
28934;SDS011;16044;52.726;-2.108;2022-10-31T14:16:18;11.07;;;2.03;;
28934;SDS011;16044;52.726;-2.108;2022-10-31T14:21:41;10.07;;;2.08;;
28934;SDS011;16044;52.726;-2.108;2022-10-31T14:29:29;14.77;;;2.20;;
28934;SDS011;16044;52.726;-2.108;2022-10-31T14:32:05;11.95;;;2.35;;
28934;SDS011;16044;52.726;-2.108;2022-10-31T14:34:53;13.82;;;2.90;;
28934;SDS011;16044;52.726;-2.108;2022-10-31T14:46:50;14.43;;;2.42;;
28934;SDS011;16044;52.726;-2.108;2022-10-31T14:52:07;19.13;;;2.60;;
28934;SDS011;16044;52.726;-2.108;2022-10-31T14:54:39;12.55;;;2.17;;
28934;SDS011;16044;52.726;-2.108;2022-10-31T14:57:16;13.52;;;2.22;;
28934;SDS011;16044;52.726;-2.108;2022-10-31T14:59:54;11.90;;;2.20;;
28934;SDS011;16044;52.726;-2.108;2022-10-31T15:02:35;10.80;;;2.05;;
28934;SDS011;16044;52.726;-2.108;2022-10-31T15:05:11;14.35;;;1.90;;
28934;SDS011;16044;52.726;-2.108;2022-10-31T15:07:52;11.88;;;1.88;;
28934;SDS011;16044;52.726;-2.108;2022-10-31T15:10:31;10.98;;;1.88;;
28934;SDS011;16044;52.726;-2.108;2022-10-31T15:13:13;11.23;;;1.80;;
28934;SDS011;16044;52.726;-2.108;2022-10-31T15:15:48;8.38;;;1.70;;
28934;SDS011;16044;52.726;-2.108;2022-10-31T15:18:22;11.32;;;2.20;;
28934;SDS011;16044;52.726;-2.108;2022-10-31T15:20:53;13.00;;;2.80;;
28934;SDS011;16044;52.726;-2.108;2022-10-31T15:23:25;11.82;;;2.95;;
28934;SDS011;16044;52.726;-2.108;2022-10-31T15:26:01;17.08;;;3.00;;
28934;SDS011;16044;52.726;-2.108;2022-10-31T15:28:31;13.07;;;2.63;;
28934;SDS011;16044;52.726;-2.108;2022-10-31T15:30:59;13.15;;;2.55;;
28934;SDS011;16044;52.726;-2.108;2022-10-31T15:33:48;11.43;;;2.20;;
28934;SDS011;16044;52.726;-2.108;2022-10-31T15:36:22;13.15;;;3.10;;
28934;SDS011;16044;52.726;-2.108;2022-10-31T15:38:56;13.30;;;2.53;;
28934;SDS011;16044;52.726;-2.108;2022-10-31T15:41:29;8.68;;;2.33;;
28934;SDS011;16044;52.726;-2.108;2022-10-31T15:44:00;13.60;;;2.80;;
28934;SDS011;16044;52.726;-2.108;2022-10-31T15:46:37;10.95;;;1.90;;
28934;SDS011;16044;52.726;-2.108;2022-10-31T15:49:03;13.13;;;2.20;;
28934;SDS011;16044;52.726;-2.108;2022-10-31T15:51:44;14.68;;;2.67;;
28934;SDS011;16044;52.726;-2.108;2022-10-31T15:54:18;13.55;;;2.55;;
28934;SDS011;16044;52.726;-2.108;2022-10-31T15:56:45;12.32;;;2.72;;
28934;SDS011;16044;52.726;-2.108;2022-10-31T15:59:19;14.60;;;2.67;;
28934;SDS011;16044;52.726;-2.108;2022-10-31T16:01:59;8.80;;;2.30;;
28934;SDS011;16044;52.726;-2.108;2022-10-31T16:04:28;11.60;;;2.45;;
28934;SDS011;16044;52.726;-2.108;2022-10-31T16:07:00;10.27;;;2.70;;
28934;SDS011;16044;52.726;-2.108;2022-10-31T16:09:54;12.73;;;2.00;;
28934;SDS011;16044;52.726;-2.108;2022-10-31T16:12:24;10.23;;;2.30;;
28934;SDS011;16044;52.726;-2.108;2022-10-31T16:15:00;9.82;;;2.35;;
28934;SDS011;16044;52.726;-2.108;2022-10-31T16:17:28;10.18;;;2.25;;
28934;SDS011;16044;52.726;-2.108;2022-10-31T16:22:35;12.43;;;2.20;;
28934;SDS011;16044;52.726;-2.108;2022-10-31T16:25:08;11.05;;;2.00;;
28934;SDS011;16044;52.726;-2.108;2022-10-31T16:27:40;14.50;;;2.42;;
28934;SDS011;16044;52.726;-2.108;2022-10-31T16:30:30;12.68;;;2.25;;
28934;SDS011;16044;52.726;-2.108;2022-10-31T16:32:58;15.05;;;2.40;;
28934;SDS011;16044;52.726;-2.108;2022-10-31T16:35:32;10.43;;;2.25;;
28934;SDS011;16044;52.726;-2.108;2022-10-31T16:38:03;14.95;;;2.75;;
28934;SDS011;16044;52.726;-2.108;2022-10-31T16:40:31;13.77;;;2.83;;
28934;SDS011;16044;52.726;-2.108;2022-10-31T16:42:59;14.95;;;2.45;;
28934;SDS011;16044;52.726;-2.108;2022-10-31T16:45:29;16.33;;;3.40;;
28934;SDS011;16044;52.726;-2.108;2022-10-31T16:48:03;12.02;;;2.90;;
28934;SDS011;16044;52.726;-2.108;2022-10-31T16:50:32;10.50;;;2.53;;
28934;SDS011;16044;52.726;-2.108;2022-10-31T16:52:59;12.68;;;2.92;;
28934;SDS011;16044;52.726;-2.108;2022-10-31T16:56:01;17.55;;;3.10;;
28934;SDS011;16044;52.726;-2.108;2022-10-31T16:58:32;15.20;;;2.78;;
28934;SDS011;16044;52.726;-2.108;2022-10-31T17:01:02;12.30;;;3.08;;
28934;SDS011;16044;52.726;-2.108;2022-10-31T17:03:31;14.20;;;2.88;;
28934;SDS011;16044;52.726;-2.108;2022-10-31T17:05:58;20.00;;;3.70;;
28934;SDS011;16044;52.726;-2.108;2022-10-31T17:08:25;18.27;;;3.92;;
28934;SDS011;16044;52.726;-2.108;2022-10-31T17:10:55;14.40;;;3.50;;
28934;SDS011;16044;52.726;-2.108;2022-10-31T17:13:29;14.05;;;3.60;;
28934;SDS011;16044;52.726;-2.108;2022-10-31T17:15:58;13.13;;;3.47;;
28934;SDS011;16044;52.726;-2.108;2022-10-31T17:18:29;15.70;;;3.65;;